Startpagina
METAR-TAF:

METAR-TAF

Vliegvelden :

Luchthaven Sofia

Sofia, Bulgarije

breedte: 42-39N, lengte: 023-23E, hoogte: 586 m

Actueel weer

Dit bericht is 16 minuten geleden gemaakt, om 05:30 UTC
Wind 5 kt uit het oosten
Temperatuur 12°C
Vochtigheid 82%
Druk 1024 hPa
Zicht 10 km of meer
geen wolken onder 1500 m en geen cumulonimbus

METAR: LBSF 190530Z 10005KT CAVOK 12/09 Q1024 NOSIG

Tijdstip: 08:46 (05:46 UTC)

Verwachting

Dit bericht is 46 minuten geleden gemaakt, om 05:00 UTC
Verwachting geldig van 19 om 06 UTC tot 20 om 06 UTC
Wind 4 kt uit variabele richting
Zicht 10 km of meer
geen wolken onder 1500 m en geen cumulonimbus
Wijzigt naar
van 19 om 09 UTC tot 19 om 11 UTC
Wind 10 kt uit het oosten
Verspreide wolken op 4000 ft
Wijzigt naar
van 19 om 23 UTC tot 20 om 01 UTC
Wind 4 kt uit variabele richting

TAF: LBSF 190500Z 1906/2006 VRB04KT CAVOK BECMG 1909/1911 09010KT SCT040 BECMG 1923/2001 VRB04KT

Waarnemingen en weersverwachtingen van meer dan 4000 vliegvelden (METAR en TAF).

De beschikbare stations zijn de gele en rode punten op de kaart.

Ga met uw muis naar het station om de naam te zien.

Klik dan om waarnemingen en weersverwachtingen te zien.

kaart wijzigen: klik op de groene knoppen met een zwart kruis om in te zoomen, op de groene knop met een streepje om uit te zoomen of op de groene pijlen voor aangrenzende kaarten.


METAR-TAF: